Hi Hat, Kentucky
Current Conditions -  °F | °C
As of 4:15 PM on Saturday 22 Nov 2014 (Local Time) from KPBX Reporting Station
Clear Clear  
Wind Chill: 58°   Ceiling: Unl
Heat Index: 58°   Visibility: 10mi
Dew Point: 22°   Wind: 6mph
Humidity: 25%   Direction: 200°SSW
Pressure: 30.21"   Gusts: NA
Location:  37.39°N, 82.73°W
Report Text: KPBX 222115Z AUTO 20005KT 10SM CLR 15/M05 A3021 RMK AO2 T01461055
Loading
Personal Weather Stations






























Interactive Weather Map New forecast layout! Learn more

10-Day Weather Forecast

Advertisements
Track Severe Weather on mobile